Time;durP1;ratioP1;P1;durP2;ratioP2;P2;SDS_P1;SDS_P2;PMS_P1;PMS_P2;Temp;Humidity;BMP_temperature;BMP_pressure;BME280_temperature;BME280_humidity;BME280_pressure;Samples;Min_cycle;Max_cycle;Signal;HPM_P1;HPM_P2
2021/09/11 00:01:09;;;;;;;;;;;;;;;21.91;29.40;97999.19;4907602;29;986;-80
2021/09/11 00:03:34;;;;;;;;;;;;;;;21.88;29.48;97991.59;4907087;29;884;-80
2021/09/11 00:06:00;;;;;;;;;;;;;;;21.89;29.52;97990.34;4907819;29;1899;-80
2021/09/11 00:08:25;;;;;;;;;;;;;;;22.12;28.84;97984.44;4907165;29;1449;-80
2021/09/11 00:10:51;;;;;;;;;;;;;;;21.96;29.04;97979.59;4891482;29;601;-79
2021/09/11 00:13:16;;;;;;;;;;;;;;;21.81;29.51;97987.72;4907392;29;1129;-80
2021/09/11 00:15:42;;;;;;;;;;;;;;;21.88;29.18;97977.44;4891080;29;877;-80
2021/09/11 00:18:07;;;;;;;;;;;;;;;22.23;29.45;97976.44;4907565;29;979;-81
2021/09/11 00:20:33;;;;;;;;;;;;;;;22.50;28.99;97972.41;4907575;29;695;-80
2021/09/11 00:22:59;;;;;;;;;;;;;;;22.68;28.79;97983.19;4907604;29;754;-80
2021/09/11 00:25:24;;;;;;;;;;;;;;;22.24;29.58;97978.03;4907112;29;1895;-81
2021/09/11 00:27:50;;;;;;;;;;;;;;;22.11;29.57;97968.69;4906497;29;915;-80
2021/09/11 00:30:15;;;;;;;;;;;;;;;22.00;29.87;97971.00;4906681;29;945;-80
2021/09/11 00:32:43;;;;;;;;;;;;;;;22.08;29.67;97964.69;4906705;29;695;-80
2021/09/11 00:35:15;;;;;;;;;;;;;;;22.02;29.60;97965.66;4907285;29;645;-80
2021/09/11 00:37:41;;;;;;;;;;;;;;;22.22;29.68;97963.50;4906521;29;641;-80
2021/09/11 00:40:07;;;;;;;;;;;;;;;22.07;29.60;97962.28;4906285;29;1078;-80
2021/09/11 00:42:32;;;;;;;;;;;;;;;22.02;29.97;97960.00;4906172;29;1018;-80
2021/09/11 00:44:57;;;;;;;;;;;;;;;21.97;29.91;97952.09;4906925;29;1902;-80
2021/09/11 00:47:23;;;;;;;;;;;;;;;22.08;29.81;97961.06;4906396;29;620;-80
2021/09/11 00:49:48;;;;;;;;;;;;;;;22.01;30.03;97952.75;4906500;29;696;-80
2021/09/11 00:52:14;;;;;;;;;;;;;;;21.95;29.61;97954.56;4905793;29;1027;-80
2021/09/11 00:54:39;;;;;;;;;;;;;;;22.08;29.40;97952.56;4905922;29;869;-80
2021/09/11 00:57:07;;;;;;;;;;;;;;;22.01;29.59;97952.75;4906383;29;1036;-80
2021/09/11 00:59:33;;;;;;;;;;;;;;;22.04;29.70;97951.88;4906129;29;659;-80
2021/09/11 01:01:58;;;;;;;;;;;;;;;21.92;29.62;97944.94;4905233;29;604;-80
2021/09/11 01:04:26;;;;;;;;;;;;;;;21.81;29.99;97948.06;4906701;29;1903;-80
2021/09/11 01:06:52;;;;;;;;;;;;;;;21.93;29.66;97948.56;4905318;29;884;-80
2021/09/11 01:09:17;;;;;;;;;;;;;;;22.06;29.35;97943.69;4905663;29;967;-80
2021/09/11 01:11:42;;;;;;;;;;;;;;;21.96;29.65;97942.75;4905891;29;963;-80
2021/09/11 01:14:08;;;;;;;;;;;;;;;22.01;30.13;97947.88;4890311;29;653;-80
2021/09/11 01:16:34;;;;;;;;;;;;;;;22.52;29.99;97941.53;4906442;29;703;-80
2021/09/11 01:18:59;;;;;;;;;;;;;;;22.67;29.89;97942.69;4905874;29;641;-80
2021/09/11 01:21:25;;;;;;;;;;;;;;;22.31;30.21;97935.28;4889496;29;931;-80
2021/09/11 01:23:50;;;;;;;;;;;;;;;22.14;30.14;97939.47;4905710;29;865;-80
2021/09/11 01:26:15;;;;;;;;;;;;;;;22.14;30.07;97939.47;4905920;29;1911;-80
2021/09/11 01:28:41;;;;;;;;;;;;;;;22.11;29.76;97934.69;4906243;29;727;-80
2021/09/11 01:31:06;;;;;;;;;;;;;;;22.14;30.26;97947.16;4906326;29;664;-80
2021/09/11 01:33:32;;;;;;;;;;;;;;;22.04;30.25;97940.53;4905573;29;805;-80
2021/09/11 01:35:57;;;;;;;;;;;;;;;22.04;30.17;97941.31;4905175;29;944;-80
2021/09/11 01:38:23;;;;;;;;;;;;;;;21.93;30.30;97937.22;4905196;29;873;-80
2021/09/11 01:40:48;;;;;;;;;;;;;;;21.88;30.49;97938.56;4905677;29;1011;-81
2021/09/11 01:43:14;;;;;;;;;;;;;;;21.91;30.10;97942.53;4905219;29;1124;-81
2021/09/11 01:45:39;;;;;;;;;;;;;;;21.92;30.34;97933.59;4906044;29;1907;-80
2021/09/11 01:48:05;;;;;;;;;;;;;;;22.13;29.63;97937.09;4905061;29;874;-80
2021/09/11 01:50:30;;;;;;;;;;;;;;;21.99;29.78;97935.41;4904886;29;948;-80
2021/09/11 01:52:56;;;;;;;;;;;;;;;22.05;29.58;97942.13;4905591;29;949;-80
2021/09/11 01:55:22;;;;;;;;;;;;;;;22.20;29.59;97936.84;4905874;29;993;-80
2021/09/11 01:57:47;;;;;;;;;;;;;;;22.15;29.25;97941.03;4905785;29;671;-80
2021/09/11 02:00:13;;;;;;;;;;;;;;;22.15;29.67;97940.25;4905041;29;656;-80
2021/09/11 02:02:39;;;;;;;;;;;;;;;22.08;29.61;97946.91;4905144;29;718;-79
2021/09/11 02:05:05;;;;;;;;;;;;;;;21.97;29.81;97952.09;4905255;29;1891;-80
2021/09/11 02:07:30;;;;;;;;;;;;;;;21.92;29.82;97955.47;4905288;29;954;-80
2021/09/11 02:09:55;;;;;;;;;;;;;;;21.89;29.88;97950.69;4905565;29;947;-80
2021/09/11 02:12:21;;;;;;;;;;;;;;;22.01;29.56;97947.09;4889421;29;640;-80
2021/09/11 02:14:46;;;;;;;;;;;;;;;21.99;29.70;97949.59;4904759;29;663;-80
2021/09/11 02:17:12;;;;;;;;;;;;;;;22.00;29.32;97951.16;4905503;29;680;-80
2021/09/11 02:19:37;;;;;;;;;;;;;;;22.02;29.29;97948.66;4905554;29;707;-80
2021/09/11 02:22:03;;;;;;;;;;;;;;;21.88;29.72;97954.78;4904504;29;1008;-80
2021/09/11 02:24:29;;;;;;;;;;;;;;;21.90;29.55;97963.59;4904986;29;1986;-80
2021/09/11 02:26:55;;;;;;;;;;;;;;;21.96;29.47;97956.13;4904659;29;1010;-80
2021/09/11 02:29:20;;;;;;;;;;;;;;;22.06;29.01;97966.38;4905049;29;675;-80
2021/09/11 02:31:46;;;;;;;;;;;;;;;22.04;29.26;97969.66;4904710;29;676;-80
2021/09/11 02:34:11;;;;;;;;;;;;;;;22.06;29.20;97967.16;4904509;29;668;-80
2021/09/11 02:36:37;;;;;;;;;;;;;;;21.88;29.58;97971.75;4904242;29;1062;-80
2021/09/11 02:39:06;;;;;;;;;;;;;;;21.99;29.36;97966.59;4904910;29;869;-80
2021/09/11 02:41:32;;;;;;;;;;;;;;;21.97;29.24;97977.59;4904904;29;1029;-80
2021/09/11 02:43:57;;;;;;;;;;;;;;;21.88;29.44;97974.59;4904345;29;1321;-80
2021/09/11 02:46:22;;;;;;;;;;;;;;;21.85;29.25;97982.72;4904716;29;1976;-80
2021/09/11 02:48:48;;;;;;;;;;;;;;;22.01;29.04;97975.41;4904332;29;621;-80
2021/09/11 02:51:15;;;;;;;;;;;;;;;22.15;29.94;97986.38;4904565;29;949;-80
2021/09/11 02:53:41;;;;;;;;;;;;;;;22.48;30.12;97980.53;4904742;29;951;-80
2021/09/11 02:56:06;;;;;;;;;;;;;;;22.71;30.01;97983.06;4904179;29;901;-80
2021/09/11 02:58:33;;;;;;;;;;;;;;;22.50;30.15;97983.75;4904900;29;685;-80
2021/09/11 03:00:58;;;;;;;;;;;;;;;22.14;30.38;97989.66;4904736;29;810;-80
2021/09/11 03:03:24;;;;;;;;;;;;;;;21.99;30.52;97983.59;4904256;29;664;-80
2021/09/11 03:05:49;;;;;;;;;;;;;;;21.92;30.56;97980.97;4904480;29;1964;-80
2021/09/11 03:08:15;;;;;;;;;;;;;;;21.94;30.24;97992.63;4904722;29;1018;-80
2021/09/11 03:10:40;;;;;;;;;;;;;;;21.91;30.28;97994.31;4904830;29;888;-80
2021/09/11 03:13:06;;;;;;;;;;;;;;;22.11;30.17;97985.69;4888101;29;765;-80
2021/09/11 03:15:31;;;;;;;;;;;;;;;22.10;30.23;97995.41;4904727;29;625;-80
2021/09/11 03:17:59;;;;;;;;;;;;;;;21.95;30.35;97989.34;4904894;29;776;-80
2021/09/11 03:20:24;;;;;;;;;;;;;;;22.01;30.38;97978.25;4904736;29;973;-80
2021/09/11 03:22:49;;;;;;;;;;;;;;;22.07;29.87;97990.63;4904342;29;872;-78
2021/09/11 03:25:15;;;;;;;;;;;;;;;22.03;30.20;97987.91;4905171;29;1981;-80
2021/09/11 03:27:40;;;;;;;;;;;;;;;22.04;29.98;97992.31;4907796;29;628;-79
2021/09/11 03:30:06;;;;;;;;;;;;;;;22.16;29.84;97990.00;4908353;29;712;-80
2021/09/11 03:32:32;;;;;;;;;;;;;;;21.96;29.75;97984.47;4907588;29;725;-79
2021/09/11 03:34:57;;;;;;;;;;;;;;;21.97;29.58;97986.09;4907353;29;1019;-79
2021/09/11 03:37:23;;;;;;;;;;;;;;;22.02;29.51;97988.34;4907194;29;883;-79
2021/09/11 03:39:48;;;;;;;;;;;;;;;21.91;29.88;97990.69;4907370;29;940;-79
2021/09/11 03:42:14;;;;;;;;;;;;;;;21.99;29.58;97975.88;4907616;29;1022;-80
2021/09/11 03:44:39;;;;;;;;;;;;;;;21.91;29.63;97982.19;4907403;29;1974;-80
2021/09/11 03:47:05;;;;;;;;;;;;;;;22.00;29.03;97980.28;4907996;29;636;-79
2021/09/11 03:49:30;;;;;;;;;;;;;;;21.89;29.43;97990.34;4906775;29;949;-80
2021/09/11 03:51:56;;;;;;;;;;;;;;;22.10;29.84;97984.88;4891748;29;917;-80
2021/09/11 03:54:21;;;;;;;;;;;;;;;22.52;29.77;97982.03;4907253;29;920;-80
2021/09/11 03:56:47;;;;;;;;;;;;;;;22.60;30.03;97976.94;4907949;29;688;-80
2021/09/11 03:59:12;;;;;;;;;;;;;;;22.51;29.51;97979.66;4908054;29;647;-80
2021/09/11 04:01:37;;;;;;;;;;;;;;;22.22;30.02;97980.50;4907205;29;682;-80
2021/09/11 04:04:03;;;;;;;;;;;;;;;22.11;30.03;97985.69;4907487;29;975;-80
2021/09/11 04:06:28;;;;;;;;;;;;;;;22.19;29.76;97992.75;4906904;29;1887;-80
2021/09/11 04:08:54;;;;;;;;;;;;;;;21.96;30.09;97978.81;4907628;29;836;-80
2021/09/11 04:11:19;;;;;;;;;;;;;;;21.94;29.95;97984.13;4907094;29;727;-80
2021/09/11 04:13:45;;;;;;;;;;;;;;;21.93;29.73;97983.34;4907028;29;659;-80
2021/09/11 04:16:10;;;;;;;;;;;;;;;21.91;29.71;97982.97;4907436;29;959;-81
2021/09/11 04:18:36;;;;;;;;;;;;;;;21.99;29.54;97983.59;4906634;29;900;-80
2021/09/11 04:21:08;;;;;;;;;;;;;;;21.79;29.95;97987.34;4907449;29;1065;-80
2021/09/11 04:23:34;;;;;;;;;;;;;;;22.00;29.56;97979.50;4906733;29;684;-80
2021/09/11 04:26:05;;;;;;;;;;;;;;;22.11;29.42;97982.84;4907443;29;1895;-80
2021/09/11 04:28:31;;;;;;;;;;;;;;;22.03;29.30;97990.75;4906721;29;727;-80
2021/09/11 04:30:56;;;;;;;;;;;;;;;21.98;29.22;97987.66;4906934;29;1104;-80
2021/09/11 04:33:21;;;;;;;;;;;;;;;21.84;29.39;97986.81;4906940;29;908;-80
2021/09/11 04:35:56;;;;;;;;;;;;;;;22.01;29.27;97990.38;4906620;29;1377;-80
2021/09/11 04:38:42;;;;;;;;;;;;;;;21.87;29.31;97999.31;4906285;29;616;-80
2021/09/11 04:41:08;;;;;;;;;;;;;;;21.85;29.43;97996.09;4907121;29;668;-80
2021/09/11 04:43:33;;;;;;;;;;;;;;;22.12;29.16;97992.94;4906401;29;1018;-80
2021/09/11 04:45:59;;;;;;;;;;;;;;;22.48;29.12;98000.38;4905547;29;1914;-80
2021/09/11 04:48:24;;;;;;;;;;;;;;;22.60;28.72;97999.63;4906726;29;1065;-80
2021/09/11 04:50:50;;;;;;;;;;;;;;;22.19;29.14;98008.97;4907076;29;1020;-80
2021/09/11 04:53:15;;;;;;;;;;;;;;;22.08;29.47;98009.22;4906218;29;731;-80
2021/09/11 04:55:41;;;;;;;;;;;;;;;22.11;29.00;98008.34;4905822;29;844;-81
2021/09/11 04:58:06;;;;;;;;;;;;;;;21.90;29.65;98011.75;4906797;29;696;-80
2021/09/11 05:00:32;;;;;;;;;;;;;;;22.02;29.36;98016.66;4905977;29;963;-80
2021/09/11 05:02:58;;;;;;;;;;;;;;;21.97;29.53;98014.41;4890217;29;948;-80
2021/09/11 05:05:23;;;;;;;;;;;;;;;21.78;29.39;98014.09;4906597;29;1967;-80
2021/09/11 05:07:49;;;;;;;;;;;;;;;21.87;29.30;98015.50;4906823;29;612;-80
2021/09/11 05:10:14;;;;;;;;;;;;;;;22.16;29.58;98009.84;4905554;29;867;-80
2021/09/11 05:12:40;;;;;;;;;;;;;;;22.41;29.12;98011.97;4905972;29;691;-80
2021/09/11 05:15:05;;;;;;;;;;;;;;;22.26;29.35;98020.06;4905299;29;924;-80
2021/09/11 05:17:31;;;;;;;;;;;;;;;22.10;29.66;98018.91;4905149;29;905;-80
2021/09/11 05:19:56;;;;;;;;;;;;;;;22.22;29.02;98014.50;4905686;29;790;-80
2021/09/11 05:22:22;;;;;;;;;;;;;;;21.82;29.59;98014.00;4906552;29;648;-80
2021/09/11 05:24:47;;;;;;;;;;;;;;;22.05;29.42;98004.44;4906414;29;1990;-81
2021/09/11 05:27:13;;;;;;;;;;;;;;;22.03;29.18;98012.63;4906242;29;644;-80
2021/09/11 05:29:38;;;;;;;;;;;;;;;21.92;29.54;98017.78;4905903;29;1054;-80
2021/09/11 05:32:04;;;;;;;;;;;;;;;21.90;29.45;98008.94;4905080;29;898;-80
2021/09/11 05:34:30;;;;;;;;;;;;;;;22.03;29.22;98009.78;4906018;29;822;-80
2021/09/11 05:36:55;;;;;;;;;;;;;;;21.95;29.07;98016.88;4906140;29;932;-80
2021/09/11 05:39:22;;;;;;;;;;;;;;;22.05;29.23;98018.63;4905511;29;640;-80
2021/09/11 05:41:48;;;;;;;;;;;;;;;21.91;29.20;98016.97;4889492;29;1051;-80
2021/09/11 05:44:15;;;;;;;;;;;;;;;21.97;29.26;98025.75;4905725;29;1073;-80
2021/09/11 05:46:41;;;;;;;;;;;;;;;21.91;29.37;98016.19;4905626;29;1899;-80
2021/09/11 05:49:07;;;;;;;;;;;;;;;22.08;28.75;98017.75;4905592;29;1036;-80
2021/09/11 05:51:34;;;;;;;;;;;;;;;21.90;29.36;98020.25;4904964;29;755;-80
2021/09/11 05:54:00;;;;;;;;;;;;;;;22.03;28.84;98021.13;4905891;29;616;-80
2021/09/11 05:56:26;;;;;;;;;;;;;;;22.00;28.93;98024.84;4904839;29;818;-81
2021/09/11 05:58:51;;;;;;;;;;;;;;;21.98;29.13;98027.31;4905660;29;912;-81
2021/09/11 06:01:17;;;;;;;;;;;;;;;21.88;28.91;98025.59;4904693;29;879;-81
2021/09/11 06:03:42;;;;;;;;;;;;;;;21.87;29.26;98021.16;4905045;29;945;-81
2021/09/11 06:06:08;;;;;;;;;;;;;;;21.75;29.39;98031.97;4905135;29;1966;-81
2021/09/11 06:08:33;;;;;;;;;;;;;;;21.87;29.15;98024.00;4904891;29;632;-81
2021/09/11 06:10:59;;;;;;;;;;;;;;;22.16;29.68;98033.31;4905600;29;719;-81
2021/09/11 06:13:24;;;;;;;;;;;;;;;22.43;29.20;98020.78;4904140;29;939;-81
2021/09/11 06:15:50;;;;;;;;;;;;;;;22.53;28.88;98023.31;4904091;29;903;-81
2021/09/11 06:18:15;;;;;;;;;;;;;;;22.16;29.35;98021.97;4905387;29;993;-81
2021/09/11 06:20:40;;;;;;;;;;;;;;;22.03;29.82;98021.91;4905476;29;668;-81
2021/09/11 06:23:06;;;;;;;;;;;;;;;22.15;29.57;98025.25;4888833;29;837;-81
2021/09/11 06:25:31;;;;;;;;;;;;;;;22.03;29.30;98015.44;4904189;29;1903;-81
2021/09/11 06:27:58;;;;;;;;;;;;;;;21.99;29.43;98024.03;4904822;29;1044;-81
2021/09/11 06:30:24;;;;;;;;;;;;;;;22.02;29.28;98023.16;4888422;29;915;-81
2021/09/11 06:32:50;;;;;;;;;;;;;;;21.95;29.31;98023.34;4904244;29;845;-81
2021/09/11 06:35:15;;;;;;;;;;;;;;;22.15;29.22;98014.72;4904810;29;691;-81
2021/09/11 06:37:41;;;;;;;;;;;;;;;22.12;29.27;98009.94;4904674;29;675;-81
2021/09/11 06:40:06;;;;;;;;;;;;;;;22.01;29.06;98020.75;4904762;29;1049;-81
2021/09/11 06:42:32;;;;;;;;;;;;;;;22.00;29.50;98019.16;4903929;29;1081;-81
2021/09/11 06:44:57;;;;;;;;;;;;;;;21.81;29.33;98018.06;4904016;29;1966;-81
2021/09/11 06:47:23;;;;;;;;;;;;;;;21.99;29.23;98017.59;4904831;29;826;-81
2021/09/11 06:49:48;;;;;;;;;;;;;;;21.99;29.32;98023.25;4889342;29;711;-81
2021/09/11 06:52:14;;;;;;;;;;;;;;;21.88;29.24;98015.03;4905562;29;747;-81
2021/09/11 06:54:40;;;;;;;;;;;;;;;21.98;29.24;98021.66;4905500;29;682;-81
2021/09/11 06:57:06;;;;;;;;;;;;;;;21.82;29.21;98020.47;4904442;29;1034;-81
2021/09/11 06:59:31;;;;;;;;;;;;;;;21.77;29.76;98017.38;4904404;29;960;-81
2021/09/11 07:01:57;;;;;;;;;;;;;;;21.83;29.33;98024.88;4904199;29;966;-81
2021/09/11 07:04:22;;;;;;;;;;;;;;;21.94;29.09;98018.13;4905345;29;700;-81
2021/09/11 07:06:48;;;;;;;;;;;;;;;21.92;29.42;98017.78;4904369;29;1903;-81
2021/09/11 07:09:13;;;;;;;;;;;;;;;21.87;29.14;98019.13;4904034;29;860;-81
2021/09/11 07:11:39;;;;;;;;;;;;;;;21.92;29.15;98017.78;4904742;29;1072;-82
2021/09/11 07:14:04;;;;;;;;;;;;;;;21.85;29.49;98011.06;4888470;29;893;-81
2021/09/11 07:16:30;;;;;;;;;;;;;;;21.92;29.41;98014.97;4903989;29;964;-81
2021/09/11 07:18:55;;;;;;;;;;;;;;;21.93;29.29;98013.72;4905069;29;620;-81
2021/09/11 07:21:20;;;;;;;;;;;;;;;21.91;29.29;98014.13;4904825;29;673;-81
2021/09/11 07:23:46;;;;;;;;;;;;;;;21.91;29.36;98021.84;4904292;29;670;-81
2021/09/11 07:26:18;;;;;;;;;;;;;;;21.91;29.34;98027.50;4904659;29;1907;-81
2021/09/11 07:28:43;;;;;;;;;;;;;;;21.89;29.27;98025.13;4903849;29;945;-81
2021/09/11 07:31:09;;;;;;;;;;;;;;;21.79;29.33;98027.00;4904410;29;1100;-81
2021/09/11 07:33:34;;;;;;;;;;;;;;;21.90;29.31;98017.44;4904876;29;660;-81
2021/09/11 07:36:00;;;;;;;;;;;;;;;21.93;28.93;98027.88;4904216;29;731;-81
2021/09/11 07:38:25;;;;;;;;;;;;;;;22.03;28.83;98026.78;4905037;29;687;-81
2021/09/11 07:40:51;;;;;;;;;;;;;;;22.03;29.11;98033.25;4888178;29;979;-81
2021/09/11 07:43:16;;;;;;;;;;;;;;;21.79;29.46;98021.34;4903708;29;1127;-81
2021/09/11 07:45:42;;;;;;;;;;;;;;;21.95;29.31;98029.00;4904723;29;1983;-81
2021/09/11 07:48:07;;;;;;;;;;;;;;;21.83;29.18;98027.72;4904890;29;825;-81
2021/09/11 07:50:35;;;;;;;;;;;;;;;21.91;29.21;98024.69;4904127;29;1013;-81
2021/09/11 07:53:01;;;;;;;;;;;;;;;22.03;28.90;98015.44;4903963;29;959;-81
2021/09/11 07:55:27;;;;;;;;;;;;;;;22.04;28.79;98025.53;4903299;29;968;-81
2021/09/11 07:57:52;;;;;;;;;;;;;;;21.94;28.93;98016.09;4903288;29;900;-81
2021/09/11 08:00:18;;;;;;;;;;;;;;;21.92;29.32;98018.59;4904029;29;892;-81
2021/09/11 08:02:44;;;;;;;;;;;;;;;21.98;29.18;98019.63;4904073;29;600;-81
2021/09/11 08:05:09;;;;;;;;;;;;;;;22.03;29.04;98018.28;4887874;29;1989;-81
2021/09/11 08:07:35;;;;;;;;;;;;;;;21.93;29.20;98013.72;4904584;29;604;-81
2021/09/11 08:10:00;;;;;;;;;;;;;;;21.81;29.61;97996.22;4903635;29;982;-81
2021/09/11 08:12:26;;;;;;;;;;;;;;;21.80;29.26;98005.94;4906744;29;894;-81
2021/09/11 08:14:51;;;;;;;;;;;;;;;21.91;29.31;98011.31;4906885;29;837;-81
2021/09/11 08:17:17;;;;;;;;;;;;;;;21.77;29.34;98001.19;4908106;29;628;-81
2021/09/11 08:19:42;;;;;;;;;;;;;;;22.22;29.41;98006.00;4907203;29;672;-81
2021/09/11 08:22:08;;;;;;;;;;;;;;;22.46;29.55;98005.72;4906962;29;796;-81
2021/09/11 08:24:34;;;;;;;;;;;;;;;22.33;29.58;98002.88;4907450;29;979;-81
2021/09/11 08:26:59;;;;;;;;;;;;;;;22.18;29.79;98002.50;4906318;29;1986;-81
2021/09/11 08:29:25;;;;;;;;;;;;;;;22.24;29.18;98000.69;4907124;29;966;-81
2021/09/11 08:31:50;;;;;;;;;;;;;;;22.08;29.56;97989.41;4907779;29;691;-81
2021/09/11 08:34:16;;;;;;;;;;;;;;;21.99;29.99;97989.25;4907678;29;680;-81
2021/09/11 08:36:41;;;;;;;;;;;;;;;21.95;29.72;97988.56;4906825;29;887;-81
2021/09/11 08:39:07;;;;;;;;;;;;;;;22.08;29.47;97989.41;4906612;29;949;-81
2021/09/11 08:41:33;;;;;;;;;;;;;;;22.13;29.67;97988.09;4907102;29;1173;-81
2021/09/11 08:44:00;;;;;;;;;;;;;;;22.02;29.83;97977.00;4907401;29;959;-81
2021/09/11 08:46:28;;;;;;;;;;;;;;;22.01;29.65;97981.09;4906780;29;1888;-81
2021/09/11 08:48:54;;;;;;;;;;;;;;;22.07;29.42;97979.28;4906666;29;648;-81
2021/09/11 08:51:19;;;;;;;;;;;;;;;22.18;29.05;97979.81;4906637;29;620;-81
2021/09/11 08:53:45;;;;;;;;;;;;;;;22.15;29.03;97977.88;4905925;29;946;-81
2021/09/11 08:56:10;;;;;;;;;;;;;;;22.05;29.29;97976.91;4906482;29;973;-81
2021/09/11 08:58:36;;;;;;;;;;;;;;;21.98;29.26;97971.47;4906654;29;955;-81
2021/09/11 09:01:01;;;;;;;;;;;;;;;22.09;29.04;97976.81;4906634;29;593;-80
2021/09/11 09:03:30;;;;;;;;;;;;;;;22.09;29.26;97971.16;4906848;29;650;-81
2021/09/11 09:06:14;;;;;;;;;;;;;;;21.98;29.34;97965.78;4907464;29;1914;-81
2021/09/11 09:08:40;;;;;;;;;;;;;;;22.07;28.95;97967.94;4906812;29;941;-81
2021/09/11 09:11:18;;;;;;;;;;;;;;;22.11;28.92;97968.69;4905993;29;897;-81
2021/09/11 09:13:50;;;;;;;;;;;;;;;21.94;29.27;97965.09;4907012;29;629;-81
2021/09/11 09:16:16;;;;;;;;;;;;;;;21.96;29.11;97961.81;4907030;29;704;-81
2021/09/11 09:18:41;;;;;;;;;;;;;;;22.11;28.91;97977.19;4906200;29;659;-81
2021/09/11 09:21:16;;;;;;;;;;;;;;;22.15;28.94;97963.72;4907054;29;636;-81
2021/09/11 09:23:46;;;;;;;;;;;;;;;22.00;29.12;97966.13;4889484;29;916;-81
2021/09/11 09:26:11;;;;;;;;;;;;;;;21.93;29.14;97963.50;4890373;29;1960;-81
2021/09/11 09:28:37;;;;;;;;;;;;;;;21.97;29.27;97969.09;4905941;29;670;-81
2021/09/11 09:31:02;;;;;;;;;;;;;;;22.05;29.05;97964.78;4905952;29;596;-81
2021/09/11 09:33:30;;;;;;;;;;;;;;;22.01;29.15;97972.59;4905857;29;653;-81
2021/09/11 09:35:58;;;;;;;;;;;;;;;21.82;29.46;97960.97;4906967;29;726;-81
2021/09/11 09:38:24;;;;;;;;;;;;;;;22.07;29.18;97956.63;4905453;29;1305;-81
2021/09/11 09:40:50;;;;;;;;;;;;;;;22.10;29.06;97962.22;4905038;29;960;-81
2021/09/11 09:43:42;;;;;;;;;;;;;;;22.15;28.88;97958.03;4905505;29;1068;-81
2021/09/11 09:46:11;;;;;;;;;;;;;;;22.19;28.80;97964.41;4905633;29;1899;-81
2021/09/11 09:48:37;;;;;;;;;;;;;;;22.16;28.97;97959.63;4906178;29;601;-81
2021/09/11 09:51:03;;;;;;;;;;;;;;;21.92;29.01;97949.81;4905003;29;791;-81
2021/09/11 09:53:29;;;;;;;;;;;;;;;22.14;29.04;97950.78;4905300;29;859;-81
2021/09/11 09:55:55;;;;;;;;;;;;;;;21.98;29.26;97950.84;4905278;29;939;-81
2021/09/11 09:58:21;;;;;;;;;;;;;;;22.05;29.02;97944.94;4889798;29;1015;-81
2021/09/11 10:00:48;;;;;;;;;;;;;;;21.98;29.28;97936.66;4905158;29;840;-81
2021/09/11 10:03:13;;;;;;;;;;;;;;;21.77;28.85;97893.56;4905271;29;824;-81
2021/09/11 10:05:39;;;;;;;;;;;;;;;22.03;29.22;97938.94;4905402;29;1977;-81
2021/09/11 10:08:06;;;;;;;;;;;;;;;21.97;29.15;97943.59;4904881;29;1059;-81
2021/09/11 10:10:41;;;;;;;;;;;;;;;21.99;29.04;97941.09;4905063;29;973;-81
2021/09/11 10:13:17;;;;;;;;;;;;;;;21.97;29.11;97949.25;4909415;29;1370;-81
2021/09/11 10:15:49;;;;;;;;;;;;;;;22.04;29.18;97934.88;4924048;29;842;-81
2021/09/11 10:18:42;;;;;;;;;;;;;;;21.80;29.52;97943.63;4924015;29;627;-81
2021/09/11 10:21:23;;;;;;;;;;;;;;;22.00;29.31;97928.50;4922500;29;1017;-81
2021/09/11 10:23:55;;;;;;;;;;;;;;;21.89;29.55;97925.19;4923589;29;1439;-81
2021/09/11 10:26:41;;;;;;;;;;;;;;;22.01;29.18;97935.75;4923832;29;1971;-81
2021/09/11 10:29:27;;;;;;;;;;;;;;;22.15;28.98;97924.03;4923897;29;613;-81
2021/09/11 10:32:16;;;;;;;;;;;;;;;21.98;28.92;97931.00;4917552;29;1099;-81
2021/09/11 10:34:49;;;;;;;;;;;;;;;22.07;29.16;97922.63;4906380;29;1277;-81
2021/09/11 10:37:24;;;;;;;;;;;;;;;22.07;29.00;97928.28;4923386;29;963;-81
2021/09/11 10:40:09;;;;;;;;;;;;;;;22.04;28.81;97920.69;4923466;29;910;-81
2021/09/11 10:42:54;;;;;;;;;;;;;;;21.92;29.12;97922.28;4924253;29;1007;-81
2021/09/11 10:45:36;;;;;;;;;;;;;;;21.82;29.57;97927.00;4924033;29;1976;-81
2021/09/11 10:48:04;;;;;;;;;;;;;;;21.96;29.17;97927.81;4924554;29;628;-81
2021/09/11 10:50:36;;;;;;;;;;;;;;;22.02;29.18;97914.66;4907615;29;1006;-80
2021/09/11 10:53:17;;;;;;;;;;;;;;;21.95;29.25;97915.69;4923188;29;1122;-81
2021/09/11 10:55:43;;;;;;;;;;;;;;;22.07;29.06;97916.94;4923840;29;900;-80
2021/09/11 10:58:21;;;;;;;;;;;;;;;22.11;29.10;97912.00;4923394;29;671;-80
2021/09/11 11:00:56;;;;;;;;;;;;;;;22.15;28.73;97915.53;4923558;29;657;-81
2021/09/11 11:03:22;;;;;;;;;;;;;;;22.05;29.13;97908.91;4923401;29;669;-81
2021/09/11 11:06:00;;;;;;;;;;;;;;;21.90;29.35;97913.41;4924026;29;1980;-81
2021/09/11 11:08:27;;;;;;;;;;;;;;;21.90;29.18;97904.13;4922975;29;891;-81
2021/09/11 11:10:52;;;;;;;;;;;;;;;21.95;29.04;97909.22;4923260;29;968;-81
2021/09/11 11:13:18;;;;;;;;;;;;;;;21.92;29.43;97895.97;4923361;29;633;-81
2021/09/11 11:15:44;;;;;;;;;;;;;;;21.96;29.32;97905.16;4923979;29;613;-81
2021/09/11 11:18:09;;;;;;;;;;;;;;;22.11;28.98;97889.34;4923171;29;1405;-81
2021/09/11 11:20:35;;;;;;;;;;;;;;;22.02;29.22;97889.16;4923380;29;617;-81
2021/09/11 11:23:00;;;;;;;;;;;;;;;22.10;29.02;97890.56;4923485;29;1090;-81
2021/09/11 11:25:37;;;;;;;;;;;;;;;22.04;29.01;97892.38;4922933;29;2044;-80
2021/09/11 11:28:03;;;;;;;;;;;;;;;22.02;29.03;97886.34;4923177;29;994;-81
2021/09/11 11:30:29;;;;;;;;;;;;;;;22.02;29.11;97897.66;4923284;29;651;-80
2021/09/11 11:32:57;;;;;;;;;;;;;;;22.05;29.11;97896.78;4923791;29;663;-81
2021/09/11 11:35:23;;;;;;;;;;;;;;;22.15;29.08;97901.38;4923799;29;589;-80
2021/09/11 11:37:48;;;;;;;;;;;;;;;21.99;29.08;97892.94;4922720;29;1080;-81
2021/09/11 11:40:14;;;;;;;;;;;;;;;22.19;28.96;97896.38;4922758;29;979;-80
2021/09/11 11:42:41;;;;;;;;;;;;;;;22.28;28.78;97896.53;4922861;29;1196;-81
2021/09/11 11:45:08;;;;;;;;;;;;;;;22.17;28.98;97892.41;4907443;29;1903;-81
2021/09/11 11:47:40;;;;;;;;;;;;;;;22.14;28.88;97888.44;4925343;29;803;-81
2021/09/11 11:50:09;;;;;;;;;;;;;;;22.02;29.13;97880.69;4927634;29;769;-80
2021/09/11 11:52:35;;;;;;;;;;;;;;;22.09;28.90;97878.44;4926448;29;957;-81
2021/09/11 11:55:05;;;;;;;;;;;;;;;21.97;29.06;97884.09;4926414;29;868;-81
2021/09/11 11:57:31;;;;;;;;;;;;;;;21.95;29.20;97869.56;4926461;29;1023;-81
2021/09/11 11:59:57;;;;;;;;;;;;;;;22.19;28.70;97873.72;4926428;29;600;-81
2021/09/11 12:02:24;;;;;;;;;;;;;;;22.14;28.74;97877.09;4926452;29;772;-81
2021/09/11 12:04:50;;;;;;;;;;;;;;;22.01;29.16;97879.09;4926947;29;1910;-81
2021/09/11 12:07:30;;;;;;;;;;;;;;;22.18;28.65;97877.81;4926119;29;1125;-81
2021/09/11 12:10:00;;;;;;;;;;;;;;;22.13;28.74;97881.19;4926683;29;854;-81
2021/09/11 12:12:42;;;;;;;;;;;;;;;22.02;29.27;97877.84;4926230;29;644;-81
2021/09/11 12:15:08;;;;;;;;;;;;;;;22.03;29.13;97871.75;4926227;29;846;-81
2021/09/11 12:17:34;;;;;;;;;;;;;;;22.07;29.16;97871.63;4910561;29;879;-81
2021/09/11 12:20:12;;;;;;;;;;;;;;;22.04;28.91;97881.03;4926118;29;981;-81
2021/09/11 12:22:38;;;;;;;;;;;;;;;22.03;29.21;97859.63;4925806;29;1012;-81
2021/09/11 12:25:03;;;;;;;;;;;;;;;22.08;29.15;97867.56;4926389;29;1965;-81
2021/09/11 12:27:29;;;;;;;;;;;;;;;22.00;29.23;97854.84;4925644;29;1126;-80
2021/09/11 12:30:04;;;;;;;;;;;;;;;22.00;29.20;97855.63;4925888;29;625;-80
2021/09/11 12:32:30;;;;;;;;;;;;;;;22.01;29.27;97848.72;4925892;29;665;-80
2021/09/11 12:34:55;;;;;;;;;;;;;;;22.10;29.14;97853.72;4910390;29;732;-80
2021/09/11 12:37:21;;;;;;;;;;;;;;;22.07;29.01;97860.28;4925401;29;1173;-80
2021/09/11 12:39:47;;;;;;;;;;;;;;;22.07;29.10;97846.94;4926139;29;974;-80
2021/09/11 12:42:13;;;;;;;;;;;;;;;22.26;28.64;97844.34;4925644;29;1116;-80
2021/09/11 12:44:41;;;;;;;;;;;;;;;22.07;28.89;97837.63;4910287;29;1181;-81
2021/09/11 12:47:10;;;;;;;;;;;;;;;22.18;29.07;97840.16;4909847;29;1910;-81
2021/09/11 12:49:38;;;;;;;;;;;;;;;22.14;28.99;97843.09;4908785;29;873;-81
2021/09/11 12:52:04;;;;;;;;;;;;;;;22.13;29.07;97837.91;4925984;29;1088;-80
2021/09/11 12:54:29;;;;;;;;;;;;;;;22.23;28.75;97840.41;4925253;29;926;-81
2021/09/11 12:56:55;;;;;;;;;;;;;;;22.14;29.01;97833.81;4925948;29;1016;-81
2021/09/11 12:59:20;;;;;;;;;;;;;;;22.11;29.06;97835.50;4924203;29;681;-81
2021/09/11 13:01:47;;;;;;;;;;;;;;;22.00;29.03;97838.63;4925384;29;847;-81
2021/09/11 13:04:14;;;;;;;;;;;;;;;22.14;29.05;97837.44;4925557;29;672;-81